Aérodrome :
LOGIN :

S'inscrire | Disclaimer

   EN    FR    IT 

 










Légende :    VFR   VFR Marginal   IFR   IFR Intensif   IFR Très Intensif
Visi : 
Plafond : 
>= 8 km
>= 3000ft
5 à 8 km
1000 à 3000 ft
1500m à 5 km
500 à 1000 ft
800 à 1500m
200 à 500 ft
< 800m
< 200 ft
Symboles :   Orages  Brouillard  Fortes neiges  Fortes précipitations  Vent > 20 kt
SIGMETs :   Divers  Orages  Givrage  Turbulence  Onde Orograph.  Cendres Volcan.






- Altitude de l'aérodrome : 697 ft
- Code IATA : PEG


LIRZ - San Edigio Perugia

DERNIER METAR :
  • 240620Z AUTO 31002KT 0150 R01/0550D FG FEW008/// 01/01 Q1024

METARs EXPIRÉS :
  • 240613Z AUTO VRB01KT 4800 BR FEW013/// 02/01 Q1024
  • 240607Z AUTO 18001KT 6000 R01/1400N FEW013/// 02/01 Q1024
  • 240535Z AUTO VRB01KT 4900 R01/1300D BR NCD 02/01 Q1024
  • 240519Z AUTO VRB01KT 4800 BR NCD 03/02 Q1024
  • 240450Z AUTO VRB01KT 9999 NCD 04/03 Q1024
  • 240350Z AUTO 02003KT 340V050 9999 SCT028/// 03/03 Q1023

TAF TAF LIRZ
Valide du 24 à 06h jusqu'au 25 à 06h UTC


240500Z 2406/2506 VRB05KT 8000 FEW030
TEMPO 2406/2408 0800 FG BKN005



MET'MAP, la Météo Aéronautique d'un coup d'oeil ! - Copyright ORBIFLY Décembre 2007 - Disclaimer

ORBIFLY MET'MAP TEAM :

Programmation & Développement : Alexandra Zaïnal
Sur une idée originale de : Baudouin d'Aumeries
Assistance à la programmation : Marc-Olivier Méhu
Soutien technique & logistique : Manuel Goepfert

Contact : metmap@orbifly.com




SOURCES & CREDITS :

   NOAA